TFM - Tactical Decision Aid (Experimental) INFO Settings
ID: Runway Winds: CIG/VIS Threshold: METAR Board: Map:

KTCL - Tuscaloosa Rgnl

Updated at: 2306 UTC 20 Feb 2018
Latest TAF at: 1739 UTC 20 Feb 2018

TAF Board

Time2253Z21/00Z21/01Z21/02Z21/03Z21/04Z21/05Z21/06Z21/07Z21/08Z21/09Z21/10Z21/11Z21/12Z
TypeOBSPRVLPRVLPRVLPRVLPRVLPRVLPRVLPRVLPRVLPRVLPRVLPRVLPRVL
VIS10>6>6>6>6>6>6>6>6>6>6>6>6>6
CIG90404040404012121288888
CoverOVCBKNBKNBKNBKNBKNOVCOVCOVCOVCOVCOVCOVCOVC
FltCatVFRVFRVFRVFRVFRVFRMVFRMVFRMVFRIFRIFRIFRIFRIFR
WX----------------------------
WDir170160160160160160160160160170170170170170
WSpd87777777777777
WGst----------------------------
TAF
KTCL 201739Z 2018/2118 17014G20KT P6SM SCT040 BKN060
  FM210000 16007KT P6SM BKN040
  FM210500 16007KT P6SM BKN012 OVC025
  FM210800 17007KT P6SM OVC008
  FM211500 18008KT P6SM BKN015


METAR
KTCL 202253Z 17008KT 10SM OVC090 27/17 A3018 RMK AO2 SLP216 T02720167
KTCL 202153Z 18008KT 10SM OVC085 28/17 A3017 RMK AO2 SLP213 T02780167

TAF/METAR Board Legend

Potential Impact
  None Marginal Slight Moderate High
Visibility (sm) >5 3≤X≤5 2≤X<3 0.5≤X<2 <0.5
Ceiling (100 ft) >30 10≤X≤30 7≤X<10 2≤X<7 <2
Wind Speed (kt) <10 10≤X<20 20≤X<30 ≥30
Wind Gust (kt) <15 15≤X<25 25≤X<35 ≥35
Weather No Wx Reported VCTS -TS,-FZRA TS,FZRA +TS,+FZRA





Page loaded:  23:06 UTC  |   03:06 PM Pacific  |   04:06 PM Mountain  |   05:06 PM Central  |   06:06 PM Eastern